sensor_id;sensor_type;location;lat;lon;timestamp;pressure;altitude;pressure_sealevel;temperature;humidity
46382;BME280;66809;52.974;-2.514;2024-01-30T00:01:17;1009.6242915278206;;;8.557604244259519;48.12890016634285
46382;BME280;66809;52.974;-2.514;2024-01-30T00:03:19;1009.6305476698701;;;8.584339768020305;48.08799481168474
46382;BME280;66809;52.974;-2.514;2024-01-30T00:05:18;1009.6370625038071;;;8.60104651912881;48.05023656003448
46382;BME280;66809;52.974;-2.514;2024-01-30T00:07:17;1009.6443650627941;;;8.612414038071204;48.021551009546414
46382;BME280;66809;52.974;-2.514;2024-01-30T00:09:19;1009.651601194282;;;8.620037542834556;48.00213716222145
46382;BME280;66809;52.974;-2.514;2024-01-30T00:11:22;1009.6584771346929;;;8.638213767229345;47.98643266890243
46382;BME280;66809;52.974;-2.514;2024-01-30T00:13:24;1009.6663194403556;;;8.641634682869498;47.974545078987795
46382;BME280;66809;52.974;-2.514;2024-01-30T00:15:18;1009.6738148309014;;;8.644237331667783;47.96791164428145
46382;BME280;66809;52.974;-2.514;2024-01-30T00:17:24;1009.6801945867359;;;8.656562926928654;47.96122675777191
46382;BME280;66809;52.974;-2.514;2024-01-30T00:19:18;1009.6919826388107;;;8.620977642428693;47.935228876958504
46382;BME280;66809;52.974;-2.514;2024-01-30T00:21:23;1009.7032533650237;;;8.649814039304147;47.907884108946334
46382;BME280;66809;52.974;-2.514;2024-01-30T00:23:19;1009.714960765691;;;8.685907715708526;47.876373523209885
46382;BME280;66809;52.974;-2.514;2024-01-30T00:25:18;1009.728072200842;;;8.736745766691621;47.839248660522834
46382;BME280;66809;52.974;-2.514;2024-01-30T00:27:18;1009.7410953115674;;;8.76784131068437;47.79902265657232
46382;BME280;66809;52.974;-2.514;2024-01-30T00:29:18;1009.7545838250965;;;8.80886691129502;47.75459652335243
46382;BME280;66809;52.974;-2.514;2024-01-30T00:31:25;1009.7697557092329;;;8.830527098804145;47.72527587976108
46382;BME280;66809;52.974;-2.514;2024-01-30T00:33:19;1009.7853516940161;;;8.845206306189384;47.6956963794796
46382;BME280;66809;52.974;-2.514;2024-01-30T00:35:17;1009.8020821515908;;;8.865843475147658;47.66933900397324
46382;BME280;66809;52.974;-2.514;2024-01-30T00:37:18;1009.8278308045708;;;8.870506623286284;47.64117512028903
46382;BME280;66809;52.974;-2.514;2024-01-30T00:39:18;1009.8574462820022;;;8.873016816935209;47.595723575959255
46382;BME280;66809;52.974;-2.514;2024-01-30T00:41:18;1009.8908045568495;;;8.864697940233425;47.501580000814336
46382;BME280;66809;52.974;-2.514;2024-01-30T00:43:18;1009.9267196037341;;;8.837112524703466;47.38783698084199
46382;BME280;66809;52.974;-2.514;2024-01-30T00:45:23;1009.961077788643;;;8.807646076665936;47.27529862004322
46382;BME280;66809;52.974;-2.514;2024-01-30T00:47:18;1009.9959777776494;;;8.779535811662035;47.16636060991
46382;BME280;66809;52.974;-2.514;2024-01-30T00:49:19;1010.0295910087642;;;8.734733009424373;47.05860991424022
46382;BME280;66809;52.974;-2.514;2024-01-30T00:51:26;1010.0630136792154;;;8.680825571567981;46.9647231294446
46382;BME280;66809;52.974;-2.514;2024-01-30T00:56:05;1010.7695975054974;;;6.830089675289838;44.9051269041993
46382;BME280;66809;52.974;-2.514;2024-01-30T00:57:59;1010.7715998468683;;;6.8046902179463915;44.982837992159226
46382;BME280;66809;52.974;-2.514;2024-01-30T01:00:01;1010.772158659588;;;6.783370368229552;45.06353145451888
46382;BME280;66809;52.974;-2.514;2024-01-30T01:01:59;1010.7748136449873;;;6.766616952122097;45.13450003098882
46382;BME280;66809;52.974;-2.514;2024-01-30T01:04:00;1010.7773334009161;;;6.743721149256959;45.20626881978068
46382;BME280;66809;52.974;-2.514;2024-01-30T01:05:59;1010.7824448471356;;;6.690422465438442;45.29115804548611
46382;BME280;66809;52.974;-2.514;2024-01-30T01:07:59;1010.78700944503;;;6.645364915750381;45.38840946715629
46382;BME280;66809;52.974;-2.514;2024-01-30T01:09:59;1010.791382299182;;;6.581917092888289;45.47694431213174
46382;BME280;66809;52.974;-2.514;2024-01-30T01:11:59;1010.7958934978293;;;6.551523978109638;45.57398830262058
46382;BME280;66809;52.974;-2.514;2024-01-30T01:14:03;1010.8018102376176;;;6.505885765552074;45.657089598724234
46382;BME280;66809;52.974;-2.514;2024-01-30T01:15:59;1010.8082540890954;;;6.447513583161829;45.74289663278165
46382;BME280;66809;52.974;-2.514;2024-01-30T01:18:05;1010.8153571235796;;;6.425394802536195;45.83236478811897
46382;BME280;66809;52.974;-2.514;2024-01-30T01:19:59;1010.823985322284;;;6.391477337736809;45.91657228282781
46382;BME280;66809;52.974;-2.514;2024-01-30T01:21:59;1010.8312349536575;;;6.372142665483045;45.9910223008235
46382;BME280;66809;52.974;-2.514;2024-01-30T01:23:59;1010.8403839475193;;;6.3633767719324945;46.04315197965946
46382;BME280;66809;52.974;-2.514;2024-01-30T01:25:58;1010.8499310580347;;;6.325161121232736;46.08887351710832
46382;BME280;66809;52.974;-2.514;2024-01-30T01:28:00;1010.8606675751325;;;6.307671579381078;46.13842067738928
46382;BME280;66809;52.974;-2.514;2024-01-30T01:30:00;1010.8700235689913;;;6.288424428151385;46.18315227471123
46382;BME280;66809;52.974;-2.514;2024-01-30T01:32:05;1010.8783950628061;;;6.272026348145097;46.21950155046785
46382;BME280;66809;52.974;-2.514;2024-01-30T01:34:01;1010.886671075296;;;6.257261489915367;46.24398410495222
46382;BME280;66809;52.974;-2.514;2024-01-30T01:36:05;1010.8944424777968;;;6.251373833218742;46.256978721242334
46382;BME280;66809;52.974;-2.514;2024-01-30T01:37:59;1010.9018986219402;;;6.235510403401633;46.26323302564229
46382;BME280;66809;52.974;-2.514;2024-01-30T01:39:59;1010.9106634672531;;;6.220759556243703;46.270005428343964
46382;BME280;66809;52.974;-2.514;2024-01-30T01:41:59;1010.9191051019662;;;6.209637501195127;46.274460488639974
46382;BME280;66809;52.974;-2.514;2024-01-30T01:43:59;1010.9338257118656;;;6.09899431928643;46.3278285107112
46382;BME280;66809;52.974;-2.514;2024-01-30T01:45:58;1010.950033744417;;;6.0865024240346015;46.38823343638623
46382;BME280;66809;52.974;-2.514;2024-01-30T01:47:58;1010.9664992191738;;;6.0666075166568;46.44317252188772
46382;BME280;66809;52.974;-2.514;2024-01-30T01:49:59;1010.9830285930599;;;6.0520518325686;46.50012667646418
46382;BME280;66809;52.974;-2.514;2024-01-30T01:51:58;1011.0008530446091;;;6.042937470978714;46.55849444360793
46382;BME280;66809;52.974;-2.514;2024-01-30T01:54:03;1011.019556842176;;;6.0231964365295285;46.616755603067205
46382;BME280;66809;52.974;-2.514;2024-01-30T01:55:58;1011.0387807998384;;;6.003181891694978;46.654411459008564
46382;BME280;66809;52.974;-2.514;2024-01-30T01:57:58;1011.0580756827878;;;5.9834136845675365;46.67441017470215
46382;BME280;66809;52.974;-2.514;2024-01-30T01:59:58;1011.078759247441;;;5.972130140627254;46.682672178684406
46382;BME280;66809;52.974;-2.514;2024-01-30T02:02:06;1011.0991681358363;;;5.969860885032101;46.67315223211657
46382;BME280;66809;52.974;-2.514;2024-01-30T02:03:58;1011.1197841352225;;;5.963181498940257;46.658725223881746
46382;BME280;66809;52.974;-2.514;2024-01-30T02:05:58;1011.1402102360875;;;5.9830015260935685;46.63185471141979
46382;BME280;66809;52.974;-2.514;2024-01-30T02:08:00;1011.1622603443719;;;6.004988094136929;46.58903002907877
46382;BME280;66809;52.974;-2.514;2024-01-30T02:09:59;1011.1855094297559;;;6.031512349260284;46.54430002935897
46382;BME280;66809;52.974;-2.514;2024-01-30T02:12:00;1011.2094823830565;;;6.0385808185935845;46.47391730481615
46382;BME280;66809;52.974;-2.514;2024-01-30T02:14:03;1011.2327567245619;;;6.061845183259934;46.403148900275156
46382;BME280;66809;52.974;-2.514;2024-01-30T02:15:58;1011.2557764462225;;;6.094729479289072;46.332783181506464
46382;BME280;66809;52.974;-2.514;2024-01-30T02:17:58;1011.2803025849039;;;6.109074555851007;46.252682608347364
46382;BME280;66809;52.974;-2.514;2024-01-30T02:19:58;1011.3051818743456;;;6.139296273905663;46.16073236245391
46382;BME280;66809;52.974;-2.514;2024-01-30T02:21:59;1011.332018702736;;;6.17697801360494;46.076990891485174
46382;BME280;66809;52.974;-2.514;2024-01-30T02:23:59;1011.3575727557571;;;6.195749001775293;45.9987745267832
46382;BME280;66809;52.974;-2.514;2024-01-30T02:25:59;1011.3818307160575;;;6.241118303986763;45.91118473133659
46382;BME280;66809;52.974;-2.514;2024-01-30T02:27:59;1011.4048795779435;;;6.265753643592035;45.80933606769843
46382;BME280;66809;52.974;-2.514;2024-01-30T02:29:59;1011.4292358925818;;;6.293540761595149;45.71027577170973
46382;BME280;66809;52.974;-2.514;2024-01-30T02:32:04;1011.4540620448346;;;6.322261621276359;45.61979894444657
46382;BME280;66809;52.974;-2.514;2024-01-30T02:33:58;1011.4786649806779;;;6.344745390408087;45.52373648245488
46382;BME280;66809;52.974;-2.514;2024-01-30T02:35:58;1011.5042316970067;;;6.354821678073245;45.4191508883791
46382;BME280;66809;52.974;-2.514;2024-01-30T02:37:59;1011.5295041003735;;;6.3713245192320604;45.32774862907636
46382;BME280;66809;52.974;-2.514;2024-01-30T02:39:58;1011.5541711401638;;;6.384104261267742;45.22938658261753
46382;BME280;66809;52.974;-2.514;2024-01-30T02:41:58;1011.5802086231339;;;6.3978494693566805;45.13142799718703
46382;BME280;66809;52.974;-2.514;2024-01-30T02:44:02;1011.6063971630575;;;6.399969305068791;45.045841403084516
46382;BME280;66809;52.974;-2.514;2024-01-30T02:45:59;1011.6323327996244;;;6.408833838718023;44.94630637702372
46382;BME280;66809;52.974;-2.514;2024-01-30T02:47:58;1011.6592277420391;;;6.433872033818819;44.85464840472184
46382;BME280;66809;52.974;-2.514;2024-01-30T02:49:58;1011.6880606324895;;;6.4603439233075965;44.758939945752665
46382;BME280;66809;52.974;-2.514;2024-01-30T02:51:58;1011.7159238273194;;;6.464298863088969;44.657938242352024
46382;BME280;66809;52.974;-2.514;2024-01-30T02:53:58;1011.7449349125073;;;6.479462082894861;44.56066528677221
46382;BME280;66809;52.974;-2.514;2024-01-30T02:55:58;1011.7737363222622;;;6.4715334826947775;44.46634352491631
46382;BME280;66809;52.974;-2.514;2024-01-30T02:57:59;1011.8032899888459;;;6.480235796357715;44.38101383878039
46382;BME280;66809;52.974;-2.514;2024-01-30T02:59:58;1011.8339186326036;;;6.475808084082646;44.29114250219508
46382;BME280;66809;52.974;-2.514;2024-01-30T03:01:58;1011.865252333232;;;6.464407703055736;44.213717831443596
46382;BME280;66809;52.974;-2.514;2024-01-30T03:03:59;1011.8966735966299;;;6.460952716553546;44.13295052059121
46382;BME280;66809;52.974;-2.514;2024-01-30T03:05:58;1011.9268780881431;;;6.436973079431618;44.05912660029334
46382;BME280;66809;52.974;-2.514;2024-01-30T03:08:01;1011.9562182268724;;;6.4044255544630575;43.98547504112397
46382;BME280;66809;52.974;-2.514;2024-01-30T03:09:58;1011.9871525399432;;;6.385050414969243;43.91100407007879
46382;BME280;66809;52.974;-2.514;2024-01-30T03:11:59;1012.0173968300387;;;6.375108565008406;43.8565812902582
46382;BME280;66809;52.974;-2.514;2024-01-30T03:13:58;1012.0488900920338;;;6.349926758858885;43.809222304783106
46382;BME280;66809;52.974;-2.514;2024-01-30T03:15:58;1012.0798852341042;;;6.329047759056459;43.75728953678061
46382;BME280;66809;52.974;-2.514;2024-01-30T03:17:59;1012.1096145266524;;;6.307671181125188;43.70542194341798
46382;BME280;66809;52.974;-2.514;2024-01-30T03:19:58;1012.1369891636493;;;6.285995116637765;43.659573771264974
46382;BME280;66809;52.974;-2.514;2024-01-30T03:21:58;1012.1626325227061;;;6.248205293027149;43.608148351774865
46382;BME280;66809;52.974;-2.514;2024-01-30T03:23:58;1012.1903279627713;;;6.222601886091286;43.56096016043016
46382;BME280;66809;52.974;-2.514;2024-01-30T03:25:58;1012.218780220162;;;6.187708078423228;43.53501751825061
46382;BME280;66809;52.974;-2.514;2024-01-30T03:27:58;1012.2468788596367;;;6.158685225515797;43.50861553440275
46382;BME280;66809;52.974;-2.514;2024-01-30T03:29:58;1012.274188413206;;;6.117733848663633;43.47829443228672
46382;BME280;66809;52.974;-2.514;2024-01-30T03:31:58;1012.302038463458;;;6.0686832598324605;43.439098939036604
46382;BME280;66809;52.974;-2.514;2024-01-30T03:33:59;1012.329471782504;;;6.022941180385772;43.417872062994476
46382;BME280;66809;52.974;-2.514;2024-01-30T03:36:04;1012.3566864072933;;;5.988218480293859;43.425290038229484
46382;BME280;66809;52.974;-2.514;2024-01-30T03:37:59;1012.3839690456541;;;5.944593742945817;43.4244496853001
46382;BME280;66809;52.974;-2.514;2024-01-30T03:39:58;1012.409334344579;;;5.9043614981972565;43.43311233474977
46382;BME280;66809;52.974;-2.514;2024-01-30T03:41:58;1012.4340579009452;;;5.8584347871691165;43.450779326457194
46382;BME280;66809;52.974;-2.514;2024-01-30T03:43:59;1012.4586871803166;;;5.813598514577068;43.463453680360544
46382;BME280;66809;52.974;-2.514;2024-01-30T03:46:01;1012.482121474617;;;5.774122487842084;43.479664742165134
46382;BME280;66809;52.974;-2.514;2024-01-30T03:47:59;1012.5058546804106;;;5.714383049989263;43.48084256986233
46382;BME280;66809;52.974;-2.514;2024-01-30T03:49:58;1012.529576403255;;;5.664147024811952;43.48369368204151
46382;BME280;66809;52.974;-2.514;2024-01-30T03:51:58;1012.5533893641625;;;5.627112949629352;43.49107732145125
46382;BME280;66809;52.974;-2.514;2024-01-30T03:53:59;1012.5761067631249;;;5.592797346206126;43.47826557723415
46382;BME280;66809;52.974;-2.514;2024-01-30T03:55:58;1012.5999625568737;;;5.558931756081496;43.485676404734185
46382;BME280;66809;52.974;-2.514;2024-01-30T03:57:59;1012.6239162204346;;;5.504697670237404;43.48868988759341
46382;BME280;66809;52.974;-2.514;2024-01-30T03:59:59;1012.6457312721416;;;5.455440345313154;43.509888445671216
46382;BME280;66809;52.974;-2.514;2024-01-30T04:01:59;1012.6680990117137;;;5.406056958832946;43.53681302837535
46382;BME280;66809;52.974;-2.514;2024-01-30T04:03:59;1012.6898835310354;;;5.361733197571151;43.56224864667311
46382;BME280;66809;52.974;-2.514;2024-01-30T04:05:58;1012.7125738573329;;;5.313116355158528;43.59169596534823
46382;BME280;66809;52.974;-2.514;2024-01-30T04:07:59;1012.7363037271795;;;5.266982843989172;43.632238923932235
46382;BME280;66809;52.974;-2.514;2024-01-30T04:09:59;1012.7588570196738;;;5.218245479131517;43.67940162279159
46382;BME280;66809;52.974;-2.514;2024-01-30T04:11:58;1012.7815411671129;;;5.177096549564564;43.712206064195705
46382;BME280;66809;52.974;-2.514;2024-01-30T04:13:58;1012.8029189967743;;;5.1448377482216845;43.73755509465973
46382;BME280;66809;52.974;-2.514;2024-01-30T04:15:59;1012.8247037356961;;;5.10620937140347;43.75921146259047
46382;BME280;66809;52.974;-2.514;2024-01-30T04:17:58;1012.8470350495484;;;5.060407849663604;43.78656566956504
46382;BME280;66809;52.974;-2.514;2024-01-30T04:19:58;1012.8706035587004;;;5.004991925721535;43.8223878637189
46382;BME280;66809;52.974;-2.514;2024-01-30T04:21:58;1012.8959154708419;;;4.940469996057444;43.87520813615533
46382;BME280;66809;52.974;-2.514;2024-01-30T04:24:00;1012.9209954938801;;;4.868992212635116;43.93664254550221
46382;BME280;66809;52.974;-2.514;2024-01-30T04:25:59;1012.9472690164158;;;4.8076311976754855;43.990033532034914
46382;BME280;66809;52.974;-2.514;2024-01-30T04:27:58;1012.9751081197523;;;4.73060188363159;44.05993153996973
46382;BME280;66809;52.974;-2.514;2024-01-30T04:29:58;1013.0026649660433;;;4.684621181597953;44.12380406841949
46382;BME280;66809;52.974;-2.514;2024-01-30T04:31:59;1013.0312980082185;;;4.649050060605318;44.1783749864805
46382;BME280;66809;52.974;-2.514;2024-01-30T04:33:58;1013.0610104207626;;;4.612640637200199;44.22143894134888
46382;BME280;66809;52.974;-2.514;2024-01-30T04:35:58;1013.0925588643092;;;4.546829476007914;44.27715429631714
46382;BME280;66809;52.974;-2.514;2024-01-30T04:37:59;1013.1249384920624;;;4.507503828099309;44.35175155456672
46382;BME280;66809;52.974;-2.514;2024-01-30T04:39:59;1013.1593019711493;;;4.4590678603860585;44.425493986812555
46382;BME280;66809;52.974;-2.514;2024-01-30T04:41:58;1013.1937395864537;;;4.420401111728164;44.4869918297103
46382;BME280;66809;52.974;-2.514;2024-01-30T04:43:58;1013.2295232003022;;;4.3782722188755505;44.53486204433368
46382;BME280;66809;52.974;-2.514;2024-01-30T04:45:59;1013.2649410495244;;;4.337641767153544;44.578408550333364
46382;BME280;66809;52.974;-2.514;2024-01-30T04:47:58;1013.2998721413533;;;4.307879386344441;44.6260371124457
46382;BME280;66809;52.974;-2.514;2024-01-30T04:49:58;1013.3329994880066;;;4.270523758187507;44.668625333619396
46382;BME280;66809;52.974;-2.514;2024-01-30T04:51:59;1013.3688584274411;;;4.220067041285936;44.707857833135705
46382;BME280;66809;52.974;-2.514;2024-01-30T04:53:59;1013.403741207456;;;4.164203294211754;44.76019741973331
46382;BME280;66809;52.974;-2.514;2024-01-30T04:55:58;1013.4405111378435;;;4.125824416490155;44.793167326161814
46382;BME280;66809;52.974;-2.514;2024-01-30T04:57:58;1013.4761094902907;;;4.083928996996747;44.83979564148181
46382;BME280;66809;52.974;-2.514;2024-01-30T05:00:04;1013.5132474731237;;;4.043767878551674;44.878067862519664
46382;BME280;66809;52.974;-2.514;2024-01-30T05:01:58;1013.549532430344;;;4.003203469916702;44.90976813520781
46382;BME280;66809;52.974;-2.514;2024-01-30T05:03:58;1013.5880163627058;;;3.9635308319408313;44.951013709170326
46382;BME280;66809;52.974;-2.514;2024-01-30T05:05:58;1013.6260037115167;;;3.9481735204447537;44.97661702606963
46382;BME280;66809;52.974;-2.514;2024-01-30T05:07:58;1013.6633314002033;;;3.9198939726451267;44.99247053365562
46382;BME280;66809;52.974;-2.514;2024-01-30T05:09:59;1013.7008248591427;;;3.8922445149696197;44.99943489619322
46382;BME280;66809;52.974;-2.514;2024-01-30T05:11:58;1013.7393511115383;;;3.855270576735053;45.01858300326965
46382;BME280;66809;52.974;-2.514;2024-01-30T05:13:58;1013.7785415589293;;;3.8178009528410484;45.03937300351607
46382;BME280;66809;52.974;-2.514;2024-01-30T05:15:59;1013.819485939925;;;3.773064060804789;45.06638263591038
46382;BME280;66809;52.974;-2.514;2024-01-30T05:17:59;1013.8600057410365;;;3.7336364970727733;45.100864491727634
46382;BME280;66809;52.974;-2.514;2024-01-30T05:19:58;1013.9009590675547;;;3.7071376003413894;45.12311522997988
46382;BME280;66809;52.974;-2.514;2024-01-30T05:21:58;1013.9412764835087;;;3.6868240366097003;45.12224595323908
46382;BME280;66809;52.974;-2.514;2024-01-30T05:23:59;1013.9803384508908;;;3.6618207381995505;45.12437897457626
46382;BME280;66809;52.974;-2.514;2024-01-30T05:25:59;1014.021982321918;;;3.6369081424988257;45.133027908877345
46382;BME280;66809;52.974;-2.514;2024-01-30T05:27:58;1014.0643379280406;;;3.6250023402207563;45.13921607938605
46382;BME280;66809;52.974;-2.514;2024-01-30T05:29:58;1014.1091239710715;;;3.5869696243485225;45.15960866152643
46382;BME280;66809;52.974;-2.514;2024-01-30T05:31:58;1014.153789368711;;;3.550413799606272;45.192450126210574
46382;BME280;66809;52.974;-2.514;2024-01-30T05:33:58;1014.200582573069;;;3.5253427898172793;45.2270436696597
46382;BME280;66809;52.974;-2.514;2024-01-30T05:35:58;1014.2443954839359;;;3.5243589145584524;45.23294540029857
46382;BME280;66809;52.974;-2.514;2024-01-30T05:37:58;1014.288177671977;;;3.4941644869054147;45.22052308697913
46382;BME280;66809;52.974;-2.514;2024-01-30T05:39:58;1014.3329321069826;;;3.486172958795506;45.20401100706831
46382;BME280;66809;52.974;-2.514;2024-01-30T05:41:59;1014.3762911239418;;;3.4783007717293857;45.181556161078724
46382;BME280;66809;52.974;-2.514;2024-01-30T05:43:58;1014.4173485399743;;;3.4778041721915445;45.160731233895916
46382;BME280;66809;52.974;-2.514;2024-01-30T05:45:58;1014.4632195683173;;;3.4717696996098457;45.14811220849447
46382;BME280;66809;52.974;-2.514;2024-01-30T05:47:58;1014.5069570598642;;;3.4567137824022347;45.14405017745733
46382;BME280;66809;52.974;-2.514;2024-01-30T05:49:59;1014.552250729866;;;3.437936016989224;45.15182791831486
46382;BME280;66809;52.974;-2.514;2024-01-30T05:51:58;1014.5964772894064;;;3.437212567173292;45.16111603512877
46382;BME280;66809;52.974;-2.514;2024-01-30T05:53:58;1014.6420129034818;;;3.4312302388456817;45.168712458491704
46382;BME280;66809;52.974;-2.514;2024-01-30T05:56:00;1014.6849032548223;;;3.4051436031128444;45.18367569037452
46382;BME280;66809;52.974;-2.514;2024-01-30T05:57:58;1014.7293764501966;;;3.4136281816218292;45.188694576443666
46382;BME280;66809;52.974;-2.514;2024-01-30T05:59:58;1014.7728199873724;;;3.422694192755927;45.18912290970827
46382;BME280;66809;52.974;-2.514;2024-01-30T06:01:58;1014.8169675629101;;;3.4286348476944655;45.19551299390114
46382;BME280;66809;52.974;-2.514;2024-01-30T06:03:58;1014.8588171805638;;;3.4189492055865975;45.19539457618863
46382;BME280;66809;52.974;-2.514;2024-01-30T06:05:58;1014.9022611425036;;;3.402178080544411;45.20594836702923
46382;BME280;66809;52.974;-2.514;2024-01-30T06:07:58;1014.9452074581202;;;3.4003893736990505;45.22482838040212
46382;BME280;66809;52.974;-2.514;2024-01-30T06:09:58;1014.9873600470091;;;3.390166019724495;45.24402045914801
46382;BME280;66809;52.974;-2.514;2024-01-30T06:11:58;1015.0292599329844;;;3.397400976955331;45.249922733192655
46382;BME280;66809;52.974;-2.514;2024-01-30T06:13:58;1015.070409079257;;;3.3901828246464563;45.250683877497494
46382;BME280;66809;52.974;-2.514;2024-01-30T06:15:59;1015.1108267726411;;;3.4006661424204734;45.24696157881637
46382;BME280;66809;52.974;-2.514;2024-01-30T06:17:59;1015.1498112749777;;;3.412527305023313;45.22607016377937
46382;BME280;66809;52.974;-2.514;2024-01-30T06:19:58;1015.1892886685354;;;3.4047337475143165;45.218476736051464
46382;BME280;66809;52.974;-2.514;2024-01-30T06:21:58;1015.2297147295095;;;3.409376300972698;45.222975179866005
46382;BME280;66809;52.974;-2.514;2024-01-30T06:23:59;1015.269495992021;;;3.4298838426378726;45.21234402018625
46382;BME280;66809;52.974;-2.514;2024-01-30T06:25:58;1015.306107548639;;;3.434397144348799;45.19515318878119
46382;BME280;66809;52.974;-2.514;2024-01-30T06:27:58;1015.3411619977007;;;3.451257151949006;45.172775646752115
46382;BME280;66809;52.974;-2.514;2024-01-30T06:29:58;1015.375090127982;;;3.4679693723027154;45.143343038645625
46382;BME280;66809;52.974;-2.514;2024-01-30T06:31:59;1015.4063426327496;;;3.4839157843196733;45.1073789362836
46382;BME280;66809;52.974;-2.514;2024-01-30T06:33:58;1015.4349417494765;;;3.485355887133102;45.07157572146502
46382;BME280;66809;52.974;-2.514;2024-01-30T06:35:59;1015.4649063960932;;;3.487506660099127;45.05123973555765
46382;BME280;66809;52.974;-2.514;2024-01-30T06:37:58;1015.495433850592;;;3.499167454800791;45.03784496359343
46382;BME280;66809;52.974;-2.514;2024-01-30T06:39:58;1015.5248904765429;;;3.4864627578535163;45.03769682609847
46382;BME280;66809;52.974;-2.514;2024-01-30T06:41:59;1015.5556995192751;;;3.4753105875503727;45.05449978568495
46382;BME280;66809;52.974;-2.514;2024-01-30T06:43:58;1015.5881494069152;;;3.4672871985637514;45.07208624518971
46382;BME280;66809;52.974;-2.514;2024-01-30T06:45:58;1015.6163848744098;;;3.4546514060614455;45.08529777513591
46382;BME280;66809;52.974;-2.514;2024-01-30T06:47:58;1015.6475165108285;;;3.441234294335965;45.09242241298737
46382;BME280;66809;52.974;-2.514;2024-01-30T06:49:58;1015.6781318606521;;;3.4429346460949852;45.09906596064165
46382;BME280;66809;52.974;-2.514;2024-01-30T06:51:59;1015.7086066491739;;;3.4252243901949826;45.10894631616177
46382;BME280;66809;52.974;-2.514;2024-01-30T06:53:58;1015.7391994260645;;;3.420828278643125;45.118334656056994
46382;BME280;66809;52.974;-2.514;2024-01-30T06:55:59;1015.7695336105803;;;3.413920152424361;45.12779782673654
46382;BME280;66809;52.974;-2.514;2024-01-30T06:57:58;1015.79890768853;;;3.3753558612093943;45.156914930589956
46382;BME280;66809;52.974;-2.514;2024-01-30T06:59:58;1015.8289500787998;;;3.3272811200674686;45.20310442621987
46382;BME280;66809;52.974;-2.514;2024-01-30T07:01:58;1015.858159739388;;;3.28800265695665;45.238299823282645
46382;BME280;66809;52.974;-2.514;2024-01-30T07:03:59;1015.8895822145129;;;3.265799220580323;45.271974330277565
46382;BME280;66809;52.974;-2.514;2024-01-30T07:05:58;1015.9205148494704;;;3.2301468293732944;45.317110785869794
46382;BME280;66809;52.974;-2.514;2024-01-30T07:07:58;1015.9525175150632;;;3.1987989899961944;45.362746808958846
46382;BME280;66809;52.974;-2.514;2024-01-30T07:09:58;1015.9836961694798;;;3.1563999156339406;45.4264660672464
46382;BME280;66809;52.974;-2.514;2024-01-30T07:11:59;1016.015286817886;;;3.1104300807840612;45.50071463828083
46382;BME280;66809;52.974;-2.514;2024-01-30T07:13:59;1016.0478529500338;;;3.0844246742397456;45.57092177549633